sensor_id;sensor_type;location;lat;lon;timestamp;pressure;altitude;pressure_sealevel;temperature;humidity
49341;BME280;35209;51.050;13.678;2022-08-07T00:04:04;100931.22;;;15.66;47.13
49341;BME280;35209;51.050;13.678;2022-08-07T00:09:09;100940.34;;;15.57;47.51
49341;BME280;35209;51.050;13.678;2022-08-07T00:14:21;100932.16;;;15.42;47.73
49341;BME280;35209;51.050;13.678;2022-08-07T00:19:30;100936.28;;;15.25;48.30
49341;BME280;35209;51.050;13.678;2022-08-07T00:24:52;100940.56;;;15.04;49.41
49341;BME280;35209;51.050;13.678;2022-08-07T00:29:54;100926.59;;;15.01;49.21
49341;BME280;35209;51.050;13.678;2022-08-07T00:34:56;100927.47;;;15.25;49.22
49341;BME280;35209;51.050;13.678;2022-08-07T00:39:58;100927.31;;;15.04;49.89
49341;BME280;35209;51.050;13.678;2022-08-07T00:45:00;100925.38;;;15.09;49.29
49341;BME280;35209;51.050;13.678;2022-08-07T00:50:07;100922.44;;;15.17;49.53
49341;BME280;35209;51.050;13.678;2022-08-07T00:55:29;100926.94;;;14.90;50.05
49341;BME280;35209;51.050;13.678;2022-08-07T01:00:51;100919.41;;;14.79;51.17
49341;BME280;35209;51.050;13.678;2022-08-07T01:05:54;100911.38;;;14.56;51.44
49341;BME280;35209;51.050;13.678;2022-08-07T01:10:57;100919.75;;;14.69;50.83
49341;BME280;35209;51.050;13.678;2022-08-07T01:16:18;100917.22;;;14.39;51.94
49341;BME280;35209;51.050;13.678;2022-08-07T01:21:32;100916.56;;;14.59;51.38
49341;BME280;35209;51.050;13.678;2022-08-07T01:26:37;100908.56;;;14.34;52.08
49341;BME280;35209;51.050;13.678;2022-08-07T01:31:41;100914.44;;;14.44;52.05
49341;BME280;35209;51.050;13.678;2022-08-07T01:36:50;100915.22;;;14.19;52.76
49341;BME280;35209;51.050;13.678;2022-08-07T01:42:01;100920.19;;;14.02;53.26
49341;BME280;35209;51.050;13.678;2022-08-07T01:47:23;100923.41;;;14.11;53.62
49341;BME280;35209;51.050;13.678;2022-08-07T01:52:46;100924.25;;;14.12;53.76
49341;BME280;35209;51.050;13.678;2022-08-07T01:57:57;100915.44;;;13.85;54.70
49341;BME280;35209;51.050;13.678;2022-08-07T02:03:21;100927.94;;;14.08;54.17
49341;BME280;35209;51.050;13.678;2022-08-07T02:08:46;100927.88;;;14.09;53.89
49341;BME280;35209;51.050;13.678;2022-08-07T02:13:57;100924.97;;;13.91;54.39
49341;BME280;35209;51.050;13.678;2022-08-07T02:19:07;100927.41;;;13.39;55.96
49341;BME280;35209;51.050;13.678;2022-08-07T02:24:31;100932.75;;;13.36;56.16
49341;BME280;35209;51.050;13.678;2022-08-07T02:29:35;100925.94;;;13.29;56.61
49341;BME280;35209;51.050;13.678;2022-08-07T02:34:57;100926.34;;;13.45;56.07
49341;BME280;35209;51.050;13.678;2022-08-07T02:40:04;100938.19;;;13.61;55.90
49341;BME280;35209;51.050;13.678;2022-08-07T02:45:30;100938.31;;;13.27;56.78
49341;BME280;35209;51.050;13.678;2022-08-07T02:50:53;100930.22;;;13.33;57.30
49341;BME280;35209;51.050;13.678;2022-08-07T02:55:58;100930.97;;;13.36;56.88
49341;BME280;35209;51.050;13.678;2022-08-07T03:01:08;100930.09;;;13.05;57.86
49341;BME280;35209;51.050;13.678;2022-08-07T03:06:33;100927.69;;;12.97;57.98
49341;BME280;35209;51.050;13.678;2022-08-07T03:11:36;100925.84;;;12.67;59.31
49341;BME280;35209;51.050;13.678;2022-08-07T03:16:59;100926.78;;;12.64;59.81
49341;BME280;35209;51.050;13.678;2022-08-07T03:22:06;100921.56;;;12.62;59.78
49341;BME280;35209;51.050;13.678;2022-08-07T03:27:20;100912.97;;;12.87;59.37
49341;BME280;35209;51.050;13.678;2022-08-07T03:32:46;100917.56;;;12.80;59.27
49341;BME280;35209;51.050;13.678;2022-08-07T03:38:02;100917.63;;;12.45;60.79
49341;BME280;35209;51.050;13.678;2022-08-07T03:43:05;100905.50;;;12.37;60.83
49341;BME280;35209;51.050;13.678;2022-08-07T03:48:19;100915.56;;;12.57;60.51
49341;BME280;35209;51.050;13.678;2022-08-07T03:53:21;100912.78;;;12.62;60.42
49341;BME280;35209;51.050;13.678;2022-08-07T03:58:44;100906.34;;;12.38;61.13
49341;BME280;35209;51.050;13.678;2022-08-07T04:04:07;100910.59;;;12.44;60.90
49341;BME280;35209;51.050;13.678;2022-08-07T04:09:19;100920.72;;;12.60;59.81
49341;BME280;35209;51.050;13.678;2022-08-07T04:14:27;100912.31;;;12.46;60.68
49341;BME280;35209;51.050;13.678;2022-08-07T04:19:41;100913.34;;;12.41;60.81
49341;BME280;35209;51.050;13.678;2022-08-07T04:24:54;100916.66;;;12.49;61.21
49341;BME280;35209;51.050;13.678;2022-08-07T04:29:59;100923.72;;;12.47;61.52
49341;BME280;35209;51.050;13.678;2022-08-07T04:35:20;100925.25;;;12.55;60.21
49341;BME280;35209;51.050;13.678;2022-08-07T04:40:24;100914.59;;;12.60;60.44
49341;BME280;35209;51.050;13.678;2022-08-07T04:51:13;100927.69;;;12.97;59.99
49341;BME280;35209;51.050;13.678;2022-08-07T04:56:29;100928.34;;;13.04;59.97
49341;BME280;35209;51.050;13.678;2022-08-07T05:02:00;100927.31;;;13.09;60.38
49341;BME280;35209;51.050;13.678;2022-08-07T05:07:15;100930.13;;;13.03;60.38
49341;BME280;35209;51.050;13.678;2022-08-07T05:12:41;100927.59;;;13.33;59.92
49341;BME280;35209;51.050;13.678;2022-08-07T05:17:57;100928.75;;;13.52;58.30
49341;BME280;35209;51.050;13.678;2022-08-07T05:23:08;100940.91;;;13.58;58.10
49341;BME280;35209;51.050;13.678;2022-08-07T05:28:19;100939.50;;;13.76;57.84
49341;BME280;35209;51.050;13.678;2022-08-07T05:33:29;100929.38;;;14.45;55.41
49341;BME280;35209;51.050;13.678;2022-08-07T05:38:38;100941.78;;;14.43;55.73
49341;BME280;35209;51.050;13.678;2022-08-07T05:44:02;100937.72;;;14.32;55.78
49341;BME280;35209;51.050;13.678;2022-08-07T05:49:17;100930.53;;;14.36;55.33
49341;BME280;35209;51.050;13.678;2022-08-07T05:54:24;100952.13;;;14.77;54.24
49341;BME280;35209;51.050;13.678;2022-08-07T05:59:39;100941.38;;;15.06;53.18
49341;BME280;35209;51.050;13.678;2022-08-07T06:05:07;100949.25;;;15.56;52.10
49341;BME280;35209;51.050;13.678;2022-08-07T06:10:17;100946.50;;;16.49;50.44
49341;BME280;35209;51.050;13.678;2022-08-07T06:15:22;100940.38;;;17.09;48.33
49341;BME280;35209;51.050;13.678;2022-08-07T06:20:45;100933.03;;;17.54;46.51
49341;BME280;35209;51.050;13.678;2022-08-07T06:26:12;100940.19;;;17.71;46.59
49341;BME280;35209;51.050;13.678;2022-08-07T06:31:15;100930.06;;;18.17;44.75
49341;BME280;35209;51.050;13.678;2022-08-07T06:36:18;100938.56;;;18.42;45.21
49341;BME280;35209;51.050;13.678;2022-08-07T06:41:40;100934.81;;;18.63;44.44
49341;BME280;35209;51.050;13.678;2022-08-07T06:47:24;100939.34;;;19.47;43.16
49341;BME280;35209;51.050;13.678;2022-08-07T06:52:33;100943.22;;;19.90;42.20
49341;BME280;35209;51.050;13.678;2022-08-07T06:57:42;100928.84;;;19.93;42.57
49341;BME280;35209;51.050;13.678;2022-08-07T07:02:57;100931.59;;;20.07;42.14
49341;BME280;35209;51.050;13.678;2022-08-07T07:08:02;100926.78;;;20.59;41.64
49341;BME280;35209;51.050;13.678;2022-08-07T07:13:30;100925.81;;;21.05;40.66
49341;BME280;35209;51.050;13.678;2022-08-07T07:18:58;100918.22;;;20.69;41.01
49341;BME280;35209;51.050;13.678;2022-08-07T07:24:22;100916.25;;;21.29;40.24
49341;BME280;35209;51.050;13.678;2022-08-07T07:29:26;100914.66;;;21.27;39.62
49341;BME280;35209;51.050;13.678;2022-08-07T07:34:57;100914.47;;;21.44;39.00
49341;BME280;35209;51.050;13.678;2022-08-07T07:40:04;100903.72;;;21.87;38.35
49341;BME280;35209;51.050;13.678;2022-08-07T07:45:15;100895.38;;;22.46;36.89
49341;BME280;35209;51.050;13.678;2022-08-07T07:50:24;100890.25;;;22.55;36.28
49341;BME280;35209;51.050;13.678;2022-08-07T07:55:38;100892.09;;;22.80;36.14
49341;BME280;35209;51.050;13.678;2022-08-07T08:00:56;100889.63;;;22.77;35.93
49341;BME280;35209;51.050;13.678;2022-08-07T08:06:00;100882.03;;;22.71;35.21
49341;BME280;35209;51.050;13.678;2022-08-07T08:11:04;100893.75;;;22.96;35.29
49341;BME280;35209;51.050;13.678;2022-08-07T08:16:13;100889.66;;;23.15;34.78
49341;BME280;35209;51.050;13.678;2022-08-07T08:21:25;100885.88;;;22.80;34.86
49341;BME280;35209;51.050;13.678;2022-08-07T08:27:03;100886.22;;;23.26;33.37
49341;BME280;35209;51.050;13.678;2022-08-07T08:32:11;100883.75;;;23.73;32.86
49341;BME280;35209;51.050;13.678;2022-08-07T08:37:20;100873.59;;;23.65;31.99
49341;BME280;35209;51.050;13.678;2022-08-07T08:42:46;100867.66;;;24.21;31.45
49341;BME280;35209;51.050;13.678;2022-08-07T08:48:07;100861.66;;;24.41;30.47
49341;BME280;35209;51.050;13.678;2022-08-07T08:53:20;100859.13;;;25.08;29.13
49341;BME280;35209;51.050;13.678;2022-08-07T09:03:49;100855.41;;;24.05;30.63
49341;BME280;35209;51.050;13.678;2022-08-07T09:09:09;100851.97;;;24.62;30.06
49341;BME280;35209;51.050;13.678;2022-08-07T09:14:35;100853.22;;;25.48;29.98
49341;BME280;35209;51.050;13.678;2022-08-07T09:19:55;100855.94;;;25.26;29.86
49341;BME280;35209;51.050;13.678;2022-08-07T09:25:18;100849.69;;;25.48;29.15
49341;BME280;35209;51.050;13.678;2022-08-07T09:30:31;100840.50;;;25.39;29.31
49341;BME280;35209;51.050;13.678;2022-08-07T09:35:44;100825.47;;;26.23;28.28
49341;BME280;35209;51.050;13.678;2022-08-07T09:47:05;100820.47;;;26.39;27.92
49341;BME280;35209;51.050;13.678;2022-08-07T09:52:41;100818.75;;;26.17;28.62
49341;BME280;35209;51.050;13.678;2022-08-07T10:03:20;100807.34;;;25.05;29.17
49341;BME280;35209;51.050;13.678;2022-08-07T10:14:18;100774.00;;;25.73;28.66
49341;BME280;35209;51.050;13.678;2022-08-07T10:19:39;100786.84;;;26.85;27.03
49341;BME280;35209;51.050;13.678;2022-08-07T10:25:06;100775.38;;;26.93;27.35
49341;BME280;35209;51.050;13.678;2022-08-07T10:47:10;100756.84;;;27.79;25.62
49341;BME280;35209;51.050;13.678;2022-08-07T10:52:23;100748.16;;;28.04;25.87
49341;BME280;35209;51.050;13.678;2022-08-07T11:03:41;100731.06;;;28.13;24.70
49341;BME280;35209;51.050;13.678;2022-08-07T11:09:08;100722.16;;;27.74;24.96
49341;BME280;35209;51.050;13.678;2022-08-07T11:14:39;100718.59;;;27.74;25.40
49341;BME280;35209;51.050;13.678;2022-08-07T11:20:12;100713.88;;;27.37;25.81
49341;BME280;35209;51.050;13.678;2022-08-07T11:25:27;100697.50;;;27.19;24.75
49341;BME280;35209;51.050;13.678;2022-08-07T11:41:39;100678.38;;;28.37;24.44
49341;BME280;35209;51.050;13.678;2022-08-07T11:58:27;100660.97;;;28.77;23.19
49341;BME280;35209;51.050;13.678;2022-08-07T12:08:58;100653.97;;;28.84;23.33
49341;BME280;35209;51.050;13.678;2022-08-07T12:14:14;100648.25;;;28.22;23.95
49341;BME280;35209;51.050;13.678;2022-08-07T12:25:05;100641.81;;;28.43;24.24
49341;BME280;35209;51.050;13.678;2022-08-07T12:30:50;100634.81;;;28.03;23.45
49341;BME280;35209;51.050;13.678;2022-08-07T12:35:54;100630.00;;;27.87;23.98
49341;BME280;35209;51.050;13.678;2022-08-07T12:40:59;100623.09;;;28.49;23.75
49341;BME280;35209;51.050;13.678;2022-08-07T12:51:42;100628.22;;;28.05;24.27
49341;BME280;35209;51.050;13.678;2022-08-07T12:57:07;100623.59;;;27.69;23.93
49341;BME280;35209;51.050;13.678;2022-08-07T13:02:45;100619.03;;;26.91;24.71
49341;BME280;35209;51.050;13.678;2022-08-07T13:24:25;100599.88;;;27.04;24.47
49341;BME280;35209;51.050;13.678;2022-08-07T13:29:51;100595.88;;;26.79;25.11
49341;BME280;35209;51.050;13.678;2022-08-07T13:35:40;100584.22;;;26.69;25.04
49341;BME280;35209;51.050;13.678;2022-08-07T13:46:12;100567.34;;;26.77;24.75
49341;BME280;35209;51.050;13.678;2022-08-07T13:51:29;100571.03;;;26.85;24.89
49341;BME280;35209;51.050;13.678;2022-08-07T13:56:54;100564.91;;;26.64;25.43
49341;BME280;35209;51.050;13.678;2022-08-07T14:02:04;100561.13;;;26.36;25.20
49341;BME280;35209;51.050;13.678;2022-08-07T14:07:11;100553.91;;;25.54;26.08
49341;BME280;35209;51.050;13.678;2022-08-07T14:12:32;100559.81;;;25.48;26.66
49341;BME280;35209;51.050;13.678;2022-08-07T14:17:43;100548.59;;;25.43;26.25
49341;BME280;35209;51.050;13.678;2022-08-07T14:23:15;100547.00;;;25.61;26.23
49341;BME280;35209;51.050;13.678;2022-08-07T14:28:41;100538.53;;;25.66;26.44
49341;BME280;35209;51.050;13.678;2022-08-07T14:34:00;100541.38;;;25.44;26.49
49341;BME280;35209;51.050;13.678;2022-08-07T14:39:09;100532.91;;;25.48;26.55
49341;BME280;35209;51.050;13.678;2022-08-07T14:44:31;100522.97;;;25.70;25.97
49341;BME280;35209;51.050;13.678;2022-08-07T14:49:34;100533.75;;;25.90;25.82
49341;BME280;35209;51.050;13.678;2022-08-07T14:54:58;100529.47;;;25.67;26.11
49341;BME280;35209;51.050;13.678;2022-08-07T15:00:03;100527.91;;;25.64;26.43
49341;BME280;35209;51.050;13.678;2022-08-07T15:05:07;100526.44;;;25.51;26.30
49341;BME280;35209;51.050;13.678;2022-08-07T15:10:25;100529.16;;;25.60;26.21
49341;BME280;35209;51.050;13.678;2022-08-07T15:15:37;100532.97;;;25.58;26.32
49341;BME280;35209;51.050;13.678;2022-08-07T15:20:41;100530.88;;;25.40;25.78
49341;BME280;35209;51.050;13.678;2022-08-07T15:25:57;100516.25;;;25.12;26.68
49341;BME280;35209;51.050;13.678;2022-08-07T15:31:02;100518.34;;;25.30;26.64
49341;BME280;35209;51.050;13.678;2022-08-07T15:36:07;100517.25;;;25.32;26.01
49341;BME280;35209;51.050;13.678;2022-08-07T15:41:12;100509.63;;;25.37;26.08
49341;BME280;35209;51.050;13.678;2022-08-07T15:46:38;100506.78;;;25.18;25.85
49341;BME280;35209;51.050;13.678;2022-08-07T15:51:54;100504.22;;;25.89;25.17
49341;BME280;35209;51.050;13.678;2022-08-07T15:56:58;100500.00;;;27.43;24.13
49341;BME280;35209;51.050;13.678;2022-08-07T16:02:02;100489.53;;;28.32;22.74
49341;BME280;35209;51.050;13.678;2022-08-07T16:07:10;100495.66;;;27.79;23.23
49341;BME280;35209;51.050;13.678;2022-08-07T16:18:08;100489.13;;;26.07;24.80
49341;BME280;35209;51.050;13.678;2022-08-07T16:23:58;100483.03;;;25.44;25.41
49341;BME280;35209;51.050;13.678;2022-08-07T16:29:33;100488.34;;;25.13;25.92
49341;BME280;35209;51.050;13.678;2022-08-07T16:52:02;100481.72;;;24.64;26.94
49341;BME280;35209;51.050;13.678;2022-08-07T16:57:32;100482.34;;;24.57;27.09
49341;BME280;35209;51.050;13.678;2022-08-07T17:03:18;100479.34;;;24.39;27.15
49341;BME280;35209;51.050;13.678;2022-08-07T17:08:53;100477.41;;;24.30;27.19
49341;BME280;35209;51.050;13.678;2022-08-07T17:14:29;100475.81;;;24.38;27.32
49341;BME280;35209;51.050;13.678;2022-08-07T17:19:38;100483.16;;;24.25;27.63
49341;BME280;35209;51.050;13.678;2022-08-07T17:25:15;100475.50;;;24.09;28.12
49341;BME280;35209;51.050;13.678;2022-08-07T17:30:20;100480.13;;;24.07;28.46
49341;BME280;35209;51.050;13.678;2022-08-07T17:41:09;100480.25;;;23.95;28.72
49341;BME280;35209;51.050;13.678;2022-08-07T17:52:07;100480.97;;;23.63;29.26
49341;BME280;35209;51.050;13.678;2022-08-07T18:03:30;100486.22;;;23.42;29.97
49341;BME280;35209;51.050;13.678;2022-08-07T18:08:54;100489.97;;;23.28;29.87
49341;BME280;35209;51.050;13.678;2022-08-07T18:19:21;100492.91;;;23.25;29.74
49341;BME280;35209;51.050;13.678;2022-08-07T18:24:52;100487.63;;;23.12;30.07
49341;BME280;35209;51.050;13.678;2022-08-07T18:35:37;100491.69;;;22.70;30.88
49341;BME280;35209;51.050;13.678;2022-08-07T18:41:21;100497.59;;;22.51;31.29
49341;BME280;35209;51.050;13.678;2022-08-07T18:47:04;100506.47;;;22.52;31.63
49341;BME280;35209;51.050;13.678;2022-08-07T18:52:24;100507.63;;;22.36;31.86
49341;BME280;35209;51.050;13.678;2022-08-07T19:03:25;100530.47;;;22.04;32.44
49341;BME280;35209;51.050;13.678;2022-08-07T19:08:43;100531.09;;;22.07;32.58
49341;BME280;35209;51.050;13.678;2022-08-07T19:14:05;100540.97;;;21.94;32.72
49341;BME280;35209;51.050;13.678;2022-08-07T19:24:39;100545.06;;;21.49;33.66
49341;BME280;35209;51.050;13.678;2022-08-07T19:29:50;100545.91;;;21.36;34.06
49341;BME280;35209;51.050;13.678;2022-08-07T19:35:17;100557.56;;;21.35;35.48
49341;BME280;35209;51.050;13.678;2022-08-07T19:40:28;100550.84;;;21.15;35.14
49341;BME280;35209;51.050;13.678;2022-08-07T19:45:36;100560.91;;;21.39;35.80
49341;BME280;35209;51.050;13.678;2022-08-07T19:51:03;100560.00;;;20.86;36.19
49341;BME280;35209;51.050;13.678;2022-08-07T19:56:24;100567.84;;;20.75;36.99
49341;BME280;35209;51.050;13.678;2022-08-07T20:01:52;100567.47;;;20.66;37.10
49341;BME280;35209;51.050;13.678;2022-08-07T20:06:59;100568.00;;;20.30;37.68
49341;BME280;35209;51.050;13.678;2022-08-07T20:12:01;100565.84;;;20.08;38.44
49341;BME280;35209;51.050;13.678;2022-08-07T20:17:24;100569.75;;;20.17;38.33
49341;BME280;35209;51.050;13.678;2022-08-07T20:22:28;100571.94;;;19.96;38.96
49341;BME280;35209;51.050;13.678;2022-08-07T20:27:35;100578.63;;;19.89;39.07
49341;BME280;35209;51.050;13.678;2022-08-07T20:32:49;100587.88;;;19.39;39.94
49341;BME280;35209;51.050;13.678;2022-08-07T20:37:55;100584.28;;;19.24;40.18
49341;BME280;35209;51.050;13.678;2022-08-07T20:43:02;100573.31;;;19.14;41.03
49341;BME280;35209;51.050;13.678;2022-08-07T20:48:23;100587.13;;;19.21;41.10
49341;BME280;35209;51.050;13.678;2022-08-07T20:53:32;100591.69;;;19.19;40.78
49341;BME280;35209;51.050;13.678;2022-08-07T20:58:58;100592.19;;;18.80;41.76
49341;BME280;35209;51.050;13.678;2022-08-07T21:04:02;100596.63;;;18.63;42.25
49341;BME280;35209;51.050;13.678;2022-08-07T21:09:36;100601.88;;;18.81;42.29
49341;BME280;35209;51.050;13.678;2022-08-07T21:15:03;100602.66;;;18.67;42.46
49341;BME280;35209;51.050;13.678;2022-08-07T21:20:11;100612.97;;;18.57;42.98
49341;BME280;35209;51.050;13.678;2022-08-07T21:31:01;100609.84;;;18.33;43.26
49341;BME280;35209;51.050;13.678;2022-08-07T21:41:25;100624.38;;;18.10;44.08
49341;BME280;35209;51.050;13.678;2022-08-07T21:47:06;100623.22;;;18.16;43.92
49341;BME280;35209;51.050;13.678;2022-08-07T21:58:09;100626.03;;;17.80;44.64
49341;BME280;35209;51.050;13.678;2022-08-07T22:03:41;100626.06;;;17.61;44.74
49341;BME280;35209;51.050;13.678;2022-08-07T22:08:55;100626.41;;;17.55;45.28
49341;BME280;35209;51.050;13.678;2022-08-07T22:14:00;100626.47;;;17.36;45.67
49341;BME280;35209;51.050;13.678;2022-08-07T22:19:25;100630.22;;;17.14;46.38
49341;BME280;35209;51.050;13.678;2022-08-07T22:24:39;100632.53;;;17.21;46.42
49341;BME280;35209;51.050;13.678;2022-08-07T22:29:53;100624.50;;;16.86;47.18
49341;BME280;35209;51.050;13.678;2022-08-07T22:34:58;100624.41;;;17.06;46.83
49341;BME280;35209;51.050;13.678;2022-08-07T22:45:48;100624.72;;;16.81;47.31
49341;BME280;35209;51.050;13.678;2022-08-07T22:51:39;100628.59;;;16.55;47.91
49341;BME280;35209;51.050;13.678;2022-08-07T22:57:02;100631.03;;;16.60;48.21
49341;BME280;35209;51.050;13.678;2022-08-07T23:07:35;100637.28;;;16.40;48.85
49341;BME280;35209;51.050;13.678;2022-08-07T23:24:46;100645.75;;;16.67;48.56
49341;BME280;35209;51.050;13.678;2022-08-07T23:30:03;100642.53;;;16.60;48.52
49341;BME280;35209;51.050;13.678;2022-08-07T23:35:52;100646.09;;;16.22;49.57
49341;BME280;35209;51.050;13.678;2022-08-07T23:41:38;100647.03;;;16.21;49.41
49341;BME280;35209;51.050;13.678;2022-08-07T23:47:18;100648.50;;;16.07;50.02
49341;BME280;35209;51.050;13.678;2022-08-07T23:52:32;100653.00;;;16.05;49.95
49341;BME280;35209;51.050;13.678;2022-08-07T23:58:05;100641.00;;;16.17;49.77
